Johnny James — WYT8450 — position and weather

sailwx.info

Track history (hours):
 
Tides and Currents Weather Stations Pressure Air Temp Water Temp Dewpoint Dewpoint Depression Visibility Wind Speed Wind Dir Waves Ship Positions

Johnny James

Owner: CALLAIS & SONS INC, CUT OFF, LA. More information available from US FCC via Universal Licensing System and Coast Guard Vessel Documentation Center.

Last reported at 2014-Oct-21 13:27 UTC. Time now 2014-Oct-31 05:02 UTC.
Position N 29°23' W 094°46'.
Warning: this ship's position is 9 days out of date.

Length 20 m.

Type: Towing. MMSI: 367005220.

Date/timePositionNaut miles runAvg speedWind from/ knotsBaromVisibWave heightAir tempDewpointWater temp
2014-Oct-21 13:27N 29°23' W 094°46'8 3.8
2014-Oct-21 11:13N 29°30' W 094°52'3 4.4
2014-Oct-21 10:34N 29°32' W 094°54'5 4.6
2014-Oct-21 09:33N 29°36' W 094°57'5 4.6
2014-Oct-21 08:34N 29°40' W 094°59'4 4.4
2014-Oct-21 07:34N 29°44' W 095°02'1 1.1
2014-Oct-21 06:32N 29°44' W 095°03'0 0.1
2014-Oct-21 05:34N 29°44' W 095°03'0 0.1
2014-Oct-21 04:30N 29°44' W 095°03'0 0.0
2014-Oct-21 03:34N 29°44' W 095°03'0 0.0
2014-Oct-21 02:33N 29°44' W 095°03'0 0.0
2014-Oct-21 01:33N 29°44' W 095°03'0 0.0
2014-Oct-21 00:33N 29°44' W 095°03'0 0.0
2014-Oct-20 23:34N 29°44' W 095°03'0 0.0
2014-Oct-20 22:34N 29°44' W 095°03'0 0.0
2014-Oct-20 21:33N 29°44' W 095°03'0 0.0
2014-Oct-20 20:26N 29°44' W 095°03'0 0.0
2014-Oct-20 19:29N 29°44' W 095°03'0 0.0
2014-Oct-20 14:10N 29°44' W 095°03'0 0.0
2014-Oct-20 13:29N 29°44' W 095°03'0 0.0
2014-Oct-20 12:33N 29°44' W 095°03'0 0.0
2014-Oct-20 11:33N 29°44' W 095°03'0 0.0
2014-Oct-20 10:34N 29°44' W 095°03'0 0.0
2014-Oct-20 09:33N 29°44' W 095°03'0 0.0
2014-Oct-20 08:33N 29°44' W 095°03'3 2.5
2014-Oct-20 07:29N 29°46' W 095°05'1 1.3
2014-Oct-20 06:26N 29°45' W 095°06'0 0.0
2014-Oct-20 02:31N 29°45' W 095°06'0 0.0
2014-Oct-19 21:32N 29°45' W 095°06'0 0.0
2014-Oct-19 14:33N 29°45' W 095°06'1 0.6
2014-Oct-19 13:16N 29°45' W 095°06'0 0.0
2014-Oct-19 12:31N 29°45' W 095°06'0 0.0
2014-Oct-19 11:33N 29°45' W 095°06'0 0.0
2014-Oct-19 10:30N 29°45' W 095°06'0 0.0
2014-Oct-19 09:33N 29°45' W 095°06'0 0.0
2014-Oct-19 08:18N 29°45' W 095°06'0 0.1
2014-Oct-19 07:33N 29°45' W 095°06'0 0.1
2014-Oct-19 06:32N 29°45' W 095°06'0 0.1
2014-Oct-19 05:34N 29°46' W 095°06'0 0.0
2014-Oct-19 04:34N 29°46' W 095°06'0 0.3
2014-Oct-19 03:33N 29°46' W 095°06'0 0.0
2014-Oct-19 02:32N 29°46' W 095°06'0 0.0
2014-Oct-19 01:31N 29°46' W 095°06'0 0.0
2014-Oct-19 00:33N 29°46' W 095°06'0 0.3
2014-Oct-18 23:26N 29°45' W 095°06'0 0.0
2014-Oct-18 22:33N 29°46' W 095°06'0 0.1
2014-Oct-18 21:34N 29°45' W 095°06'0 0.0
2014-Oct-18 19:33N 29°45' W 095°06'0 0.0
2014-Oct-18 17:07N 29°45' W 095°06'0 0.0
2014-Oct-18 15:30N 29°45' W 095°06'0 0.0
2014-Oct-18 14:33N 29°45' W 095°06'0 0.0
2014-Oct-18 13:33N 29°45' W 095°06'0 0.0
2014-Oct-18 12:33N 29°45' W 095°06'0 0.0
2014-Oct-18 11:31N 29°45' W 095°06'0 0.0
2014-Oct-18 10:33N 29°45' W 095°06'0 0.0
2014-Oct-18 09:29N 29°45' W 095°06'0 0.0
2014-Oct-18 08:32N 29°45' W 095°06'0 0.0
2014-Oct-18 07:33N 29°45' W 095°06'0 0.0
2014-Oct-18 06:33N 29°45' W 095°06'0 0.0
2014-Oct-18 05:33N 29°45' W 095°06'0 0.0
2014-Oct-18 04:33N 29°45' W 095°06'3 2.5
2014-Oct-18 03:28N 29°44' W 095°03'3 2.9
2014-Oct-18 02:31N 29°45' W 095°06'0 0.5
2014-Oct-18 01:33N 29°45' W 095°07'1 0.2
2014-Oct-17 18:26N 29°45' W 095°06'0 0.0
2014-Oct-17 17:32N 29°45' W 095°06'0 0.1
2014-Oct-17 16:33N 29°46' W 095°06'0 0.3
2014-Oct-17 15:33N 29°46' W 095°06'0 0.4
2014-Oct-17 14:30N 29°45' W 095°06'0 0.0
2014-Oct-17 13:33N 29°45' W 095°06'0 0.0
2014-Oct-17 12:27N 29°45' W 095°06'0 0.0
2014-Oct-17 11:33N 29°45' W 095°06'0 0.0
2014-Oct-17 10:21N 29°45' W 095°06'0 0.0
2014-Oct-17 09:28N 29°45' W 095°06'0 0.0
2014-Oct-17 08:28N 29°45' W 095°06'0 0.0
2014-Oct-17 07:30N 29°45' W 095°06'0 0.0
2014-Oct-17 06:33N 29°45' W 095°06'0 0.0
2014-Oct-17 05:23N 29°45' W 095°06'0 0.0
2014-Oct-17 04:29N 29°45' W 095°06'0 0.0
2014-Oct-17 03:06N 29°45' W 095°06'0 0.0
2014-Oct-17 01:31N 29°45' W 095°06'0 0.1
2014-Oct-17 00:33N 29°45' W 095°06'0 0.0
2014-Oct-16 23:33N 29°45' W 095°06'0 0.0
2014-Oct-16 22:30N 29°45' W 095°06'0 0.0
2014-Oct-16 21:25N 29°45' W 095°06'0 0.0
2014-Oct-16 20:33N 29°45' W 095°06'0 0.0
2014-Oct-16 19:27N 29°45' W 095°06'0 0.0
2014-Oct-16 18:32N 29°45' W 095°06'0 0.0
2014-Oct-16 17:33N 29°45' W 095°06'0 0.0
2014-Oct-16 16:32N 29°45' W 095°06'0 0.0
2014-Oct-16 15:27N 29°45' W 095°06'0 0.0
2014-Oct-16 14:33N 29°45' W 095°06'0 0.0
2014-Oct-16 13:32N 29°45' W 095°06'0 0.0
2014-Oct-16 12:34N 29°45' W 095°06'0 0.5
2014-Oct-16 11:33N 29°46' W 095°06'0 0.1
2014-Oct-16 10:34N 29°46' W 095°06'0 0.0
2014-Oct-16 09:33N 29°46' W 095°06'0 0.0
2014-Oct-16 08:34N 29°46' W 095°06'0 0.0
2014-Oct-16 07:34N 29°46' W 095°06'0 0.0
2014-Oct-16 06:33N 29°46' W 095°06'0 0.4
2014-Oct-16 05:33N 29°45' W 095°06'0 0.0
2014-Oct-16 04:30N 29°45' W 095°06'0 0.0
2014-Oct-16 03:33N 29°45' W 095°06'0 0.0
2014-Oct-16 02:34N 29°45' W 095°06'0 0.0
2014-Oct-16 01:33N 29°45' W 095°06'0 0.0
2014-Oct-16 00:33N 29°45' W 095°06'0 0.0
2014-Oct-15 23:33N 29°45' W 095°06'0 0.0
2014-Oct-15 22:32N 29°45' W 095°06'0 0.0
2014-Oct-15 21:33N 29°45' W 095°06'0 0.0
2014-Oct-15 20:34N 29°45' W 095°06'0 0.0
2014-Oct-15 19:31N 29°45' W 095°06'0 0.0
2014-Oct-15 18:20N 29°45' W 095°06'0 0.0
2014-Oct-15 17:32N 29°45' W 095°06'0 0.0
2014-Oct-15 16:33N 29°45' W 095°06'0 0.0
2014-Oct-15 15:19N 29°45' W 095°06'0 0.0
2014-Oct-15 14:32N 29°45' W 095°06'0 0.0
2014-Oct-15 13:31N 29°45' W 095°06'0 0.0
2014-Oct-15 12:33N 29°45' W 095°06'0 0.0
2014-Oct-15 11:27N 29°45' W 095°06'0 0.0
2014-Oct-15 10:33N 29°45' W 095°06'0 0.0
2014-Oct-15 09:33N 29°45' W 095°06'0 0.0
2014-Oct-15 08:33N 29°45' W 095°06'0 0.0
2014-Oct-15 07:33N 29°45' W 095°06'0 0.0
2014-Oct-15 06:33N 29°45' W 095°06'0 0.0
2014-Oct-15 05:33N 29°45' W 095°06'0 0.0
2014-Oct-15 04:33N 29°45' W 095°06'0 0.0
2014-Oct-15 03:33N 29°45' W 095°06'0 0.0
2014-Oct-15 02:33N 29°45' W 095°06'0 0.0
2014-Oct-15 01:33N 29°45' W 095°06'0 0.0
2014-Oct-15 00:33N 29°45' W 095°06'0 0.0
2014-Oct-14 23:33N 29°45' W 095°06'0 0.0
2014-Oct-14 22:33N 29°45' W 095°06'0 0.0
2014-Oct-14 21:33N 29°45' W 095°06'0 0.1
2014-Oct-14 20:33N 29°46' W 095°06'0 0.3
2014-Oct-14 19:33N 29°46' W 095°06'0 0.4
2014-Oct-14 18:24N 29°45' W 095°06'0 0.3
2014-Oct-14 17:28N 29°45' W 095°06'0 0.3
2014-Oct-14 16:32N 29°45' W 095°06'0 0.2
2014-Oct-14 14:33N 29°46' W 095°06'0 0.3
2014-Oct-14 13:33N 29°46' W 095°06'0 0.0
2014-Oct-14 12:33N 29°46' W 095°06'0 0.0
2014-Oct-14 11:33N 29°46' W 095°06'0 0.0
2014-Oct-14 10:33N 29°46' W 095°06'2 2.5
2014-Oct-14 09:33N 29°44' W 095°03'0 0.3
2014-Oct-14 08:33N 29°44' W 095°03'0 0.0
2014-Oct-14 07:33N 29°44' W 095°03'0 0.0
2014-Oct-14 06:32N 29°44' W 095°03'0 0.0
2014-Oct-14 05:33N 29°44' W 095°03'0 0.0
2014-Oct-14 03:26N 29°44' W 095°03'0 0.0
2014-Oct-14 02:33N 29°44' W 095°03'0 0.0
2014-Oct-14 01:32N 29°44' W 095°03'0 0.0
2014-Oct-14 00:33N 29°44' W 095°03'0 0.0
2014-Oct-13 23:33N 29°44' W 095°03'0 0.0
2014-Oct-13 22:33N 29°44' W 095°03'0 0.0
2014-Oct-13 21:33N 29°44' W 095°03'0 0.0
2014-Oct-13 19:24N 29°44' W 095°03'0 0.0
2014-Oct-13 18:33N 29°44' W 095°03'0 0.0
2014-Oct-13 17:33N 29°44' W 095°03'0 0.0
2014-Oct-13 16:33N 29°44' W 095°03'0 0.0
2014-Oct-13 15:33N 29°44' W 095°03'0 0.0
2014-Oct-13 14:33N 29°44' W 095°03'10 1.2
2014-Oct-13 06:26N 29°43' W 095°14'0 0.0
2014-Oct-13 05:33N 29°43' W 095°14'0 0.0
2014-Oct-13 04:33N 29°43' W 095°14'0 0.0
2014-Oct-13 03:32N 29°43' W 095°14'0 0.0
2014-Oct-13 02:13N 29°43' W 095°14'0 0.0
2014-Oct-13 01:14N 29°43' W 095°14'0 0.0
2014-Oct-13 00:14N 29°43' W 095°14'0 0.0
2014-Oct-12 23:30N 29°43' W 095°14'0 0.0
2014-Oct-12 22:08N 29°43' W 095°14'0 0.0
2014-Oct-12 21:24N 29°43' W 095°14'0 0.0
2014-Oct-12 19:22N 29°43' W 095°14'0 0.0
2014-Oct-12 18:32N 29°43' W 095°14'0 0.0
2014-Oct-12 17:25N 29°43' W 095°14'0 0.0
2014-Oct-12 16:32N 29°43' W 095°14'0 0.0
2014-Oct-12 15:33N 29°43' W 095°14'0 0.0
2014-Oct-12 14:32N 29°43' W 095°14'0 0.0
2014-Oct-12 13:27N 29°43' W 095°14'0 0.0
2014-Oct-12 12:26N 29°43' W 095°14'0 0.0
2014-Oct-12 11:27N 29°43' W 095°14'0 0.0
2014-Oct-12 10:32N 29°43' W 095°14'0 0.0
2014-Oct-12 09:26N 29°43' W 095°14'0 0.0
2014-Oct-12 08:31N 29°43' W 095°14'0 0.0
2014-Oct-12 07:31N 29°43' W 095°14'0 0.0
2014-Oct-12 06:32N 29°43' W 095°14'0 0.0
2014-Oct-12 05:33N 29°43' W 095°14'0 0.0
2014-Oct-12 04:32N 29°43' W 095°14'0 0.0
2014-Oct-12 03:31N 29°43' W 095°14'1 1.5
2014-Oct-12 02:33N 29°44' W 095°13'4 4.0
2014-Oct-12 01:33N 29°44' W 095°08'2 1.4
2014-Oct-12 00:18N 29°45' W 095°06'0 0.0
2014-Oct-11 16:33N 29°45' W 095°06'0 0.0
2014-Oct-11 15:33N 29°45' W 095°06'0 0.0
2014-Oct-11 14:33N 29°45' W 095°06'0 0.0
2014-Oct-11 13:33N 29°45' W 095°06'  
Track history (hours):
 
Tides and Currents Weather Stations Pressure Air Temp Water Temp Dewpoint Dewpoint Depression Visibility Wind Speed Wind Dir Waves Ship Positions

Johnny James

Owner: CALLAIS & SONS INC, CUT OFF, LA. More information available from US FCC via Universal Licensing System and Coast Guard Vessel Documentation Center.

Last reported at 2014-Oct-21 13:27 UTC. Time now 2014-Oct-31 05:02 UTC.
Position N 29°23' W 094°46'.
Warning: this ship's position is 9 days out of date.

Length 20 m.

Type: Towing. MMSI: 367005220.

Date/timePositionNaut miles runAvg speedWind from/ knotsBaromVisibWave heightAir tempDewpointWater temp
2014-Oct-21 13:27N 29°23' W 094°46'8 3.8
2014-Oct-21 11:13N 29°30' W 094°52'3 4.4
2014-Oct-21 10:34N 29°32' W 094°54'5 4.6
2014-Oct-21 09:33N 29°36' W 094°57'5 4.6
2014-Oct-21 08:34N 29°40' W 094°59'4 4.4
2014-Oct-21 07:34N 29°44' W 095°02'1 1.1
2014-Oct-21 06:32N 29°44' W 095°03'0 0.1
2014-Oct-21 05:34N 29°44' W 095°03'0 0.1
2014-Oct-21 04:30N 29°44' W 095°03'0 0.0
2014-Oct-21 03:34N 29°44' W 095°03'0 0.0
2014-Oct-21 02:33N 29°44' W 095°03'0 0.0
2014-Oct-21 01:33N 29°44' W 095°03'0 0.0
2014-Oct-21 00:33N 29°44' W 095°03'0 0.0
2014-Oct-20 23:34N 29°44' W 095°03'0 0.0
2014-Oct-20 22:34N 29°44' W 095°03'0 0.0
2014-Oct-20 21:33N 29°44' W 095°03'0 0.0
2014-Oct-20 20:26N 29°44' W 095°03'0 0.0
2014-Oct-20 19:29N 29°44' W 095°03'0 0.0
2014-Oct-20 14:10N 29°44' W 095°03'0 0.0
2014-Oct-20 13:29N 29°44' W 095°03'0 0.0
2014-Oct-20 12:33N 29°44' W 095°03'0 0.0
2014-Oct-20 11:33N 29°44' W 095°03'0 0.0
2014-Oct-20 10:34N 29°44' W 095°03'0 0.0
2014-Oct-20 09:33N 29°44' W 095°03'0 0.0
2014-Oct-20 08:33N 29°44' W 095°03'3 2.5
2014-Oct-20 07:29N 29°46' W 095°05'1 1.3
2014-Oct-20 06:26N 29°45' W 095°06'0 0.0
2014-Oct-20 02:31N 29°45' W 095°06'0 0.0
2014-Oct-19 21:32N 29°45' W 095°06'0 0.0
2014-Oct-19 14:33N 29°45' W 095°06'1 0.6
2014-Oct-19 13:16N 29°45' W 095°06'0 0.0
2014-Oct-19 12:31N 29°45' W 095°06'0 0.0
2014-Oct-19 11:33N 29°45' W 095°06'0 0.0
2014-Oct-19 10:30N 29°45' W 095°06'0 0.0
2014-Oct-19 09:33N 29°45' W 095°06'0 0.0
2014-Oct-19 08:18N 29°45' W 095°06'0 0.1
2014-Oct-19 07:33N 29°45' W 095°06'0 0.1
2014-Oct-19 06:32N 29°45' W 095°06'0 0.1
2014-Oct-19 05:34N 29°46' W 095°06'0 0.0
2014-Oct-19 04:34N 29°46' W 095°06'0 0.3
2014-Oct-19 03:33N 29°46' W 095°06'0 0.0
2014-Oct-19 02:32N 29°46' W 095°06'0 0.0
2014-Oct-19 01:31N 29°46' W 095°06'0 0.0
2014-Oct-19 00:33N 29°46' W 095°06'0 0.3
2014-Oct-18 23:26N 29°45' W 095°06'0 0.0
2014-Oct-18 22:33N 29°46' W 095°06'0 0.1
2014-Oct-18 21:34N 29°45' W 095°06'0 0.0
2014-Oct-18 19:33N 29°45' W 095°06'0 0.0
2014-Oct-18 17:07N 29°45' W 095°06'0 0.0
2014-Oct-18 15:30N 29°45' W 095°06'0 0.0
2014-Oct-18 14:33N 29°45' W 095°06'0 0.0
2014-Oct-18 13:33N 29°45' W 095°06'0 0.0
2014-Oct-18 12:33N 29°45' W 095°06'0 0.0
2014-Oct-18 11:31N 29°45' W 095°06'0 0.0
2014-Oct-18 10:33N 29°45' W 095°06'0 0.0
2014-Oct-18 09:29N 29°45' W 095°06'0 0.0
2014-Oct-18 08:32N 29°45' W 095°06'0 0.0
2014-Oct-18 07:33N 29°45' W 095°06'0 0.0
2014-Oct-18 06:33N 29°45' W 095°06'0 0.0
2014-Oct-18 05:33N 29°45' W 095°06'0 0.0
2014-Oct-18 04:33N 29°45' W 095°06'3 2.5
2014-Oct-18 03:28N 29°44' W 095°03'3 2.9
2014-Oct-18 02:31N 29°45' W 095°06'0 0.5
2014-Oct-18 01:33N 29°45' W 095°07'1 0.2
2014-Oct-17 18:26N 29°45' W 095°06'0 0.0
2014-Oct-17 17:32N 29°45' W 095°06'0 0.1
2014-Oct-17 16:33N 29°46' W 095°06'0 0.3
2014-Oct-17 15:33N 29°46' W 095°06'0 0.4
2014-Oct-17 14:30N 29°45' W 095°06'0 0.0
2014-Oct-17 13:33N 29°45' W 095°06'0 0.0
2014-Oct-17 12:27N 29°45' W 095°06'0 0.0
2014-Oct-17 11:33N 29°45' W 095°06'0 0.0
2014-Oct-17 10:21N 29°45' W 095°06'0 0.0
2014-Oct-17 09:28N 29°45' W 095°06'0 0.0
2014-Oct-17 08:28N 29°45' W 095°06'0 0.0
2014-Oct-17 07:30N 29°45' W 095°06'0 0.0
2014-Oct-17 06:33N 29°45' W 095°06'0 0.0
2014-Oct-17 05:23N 29°45' W 095°06'0 0.0
2014-Oct-17 04:29N 29°45' W 095°06'0 0.0
2014-Oct-17 03:06N 29°45' W 095°06'0 0.0
2014-Oct-17 01:31N 29°45' W 095°06'0 0.1
2014-Oct-17 00:33N 29°45' W 095°06'0 0.0
2014-Oct-16 23:33N 29°45' W 095°06'0 0.0
2014-Oct-16 22:30N 29°45' W 095°06'0 0.0
2014-Oct-16 21:25N 29°45' W 095°06'0 0.0
2014-Oct-16 20:33N 29°45' W 095°06'0 0.0
2014-Oct-16 19:27N 29°45' W 095°06'0 0.0
2014-Oct-16 18:32N 29°45' W 095°06'0 0.0
2014-Oct-16 17:33N 29°45' W 095°06'0 0.0
2014-Oct-16 16:32N 29°45' W 095°06'0 0.0
2014-Oct-16 15:27N 29°45' W 095°06'0 0.0
2014-Oct-16 14:33N 29°45' W 095°06'0 0.0
2014-Oct-16 13:32N 29°45' W 095°06'0 0.0
2014-Oct-16 12:34N 29°45' W 095°06'0 0.5
2014-Oct-16 11:33N 29°46' W 095°06'0 0.1
2014-Oct-16 10:34N 29°46' W 095°06'0 0.0
2014-Oct-16 09:33N 29°46' W 095°06'0 0.0
2014-Oct-16 08:34N 29°46' W 095°06'0 0.0
2014-Oct-16 07:34N 29°46' W 095°06'0 0.0
2014-Oct-16 06:33N 29°46' W 095°06'0 0.4
2014-Oct-16 05:33N 29°45' W 095°06'0 0.0
2014-Oct-16 04:30N 29°45' W 095°06'0 0.0
2014-Oct-16 03:33N 29°45' W 095°06'0 0.0
2014-Oct-16 02:34N 29°45' W 095°06'0 0.0
2014-Oct-16 01:33N 29°45' W 095°06'0 0.0
2014-Oct-16 00:33N 29°45' W 095°06'0 0.0
2014-Oct-15 23:33N 29°45' W 095°06'0 0.0
2014-Oct-15 22:32N 29°45' W 095°06'0 0.0
2014-Oct-15 21:33N 29°45' W 095°06'0 0.0
2014-Oct-15 20:34N 29°45' W 095°06'0 0.0
2014-Oct-15 19:31N 29°45' W 095°06'0 0.0
2014-Oct-15 18:20N 29°45' W 095°06'0 0.0
2014-Oct-15 17:32N 29°45' W 095°06'0 0.0
2014-Oct-15 16:33N 29°45' W 095°06'0 0.0
2014-Oct-15 15:19N 29°45' W 095°06'0 0.0
2014-Oct-15 14:32N 29°45' W 095°06'0 0.0
2014-Oct-15 13:31N 29°45' W 095°06'0 0.0
2014-Oct-15 12:33N 29°45' W 095°06'0 0.0
2014-Oct-15 11:27N 29°45' W 095°06'0 0.0
2014-Oct-15 10:33N 29°45' W 095°06'0 0.0
2014-Oct-15 09:33N 29°45' W 095°06'0 0.0
2014-Oct-15 08:33N 29°45' W 095°06'0 0.0
2014-Oct-15 07:33N 29°45' W 095°06'0 0.0
2014-Oct-15 06:33N 29°45' W 095°06'0 0.0
2014-Oct-15 05:33N 29°45' W 095°06'0 0.0
2014-Oct-15 04:33N 29°45' W 095°06'0 0.0
2014-Oct-15 03:33N 29°45' W 095°06'0 0.0
2014-Oct-15 02:33N 29°45' W 095°06'0 0.0
2014-Oct-15 01:33N 29°45' W 095°06'0 0.0
2014-Oct-15 00:33N 29°45' W 095°06'0 0.0
2014-Oct-14 23:33N 29°45' W 095°06'0 0.0
2014-Oct-14 22:33N 29°45' W 095°06'0 0.0
2014-Oct-14 21:33N 29°45' W 095°06'0 0.1
2014-Oct-14 20:33N 29°46' W 095°06'0 0.3
2014-Oct-14 19:33N 29°46' W 095°06'0 0.4
2014-Oct-14 18:24N 29°45' W 095°06'0 0.3
2014-Oct-14 17:28N 29°45' W 095°06'0 0.3
2014-Oct-14 16:32N 29°45' W 095°06'0 0.2
2014-Oct-14 14:33N 29°46' W 095°06'0 0.3
2014-Oct-14 13:33N 29°46' W 095°06'0 0.0
2014-Oct-14 12:33N 29°46' W 095°06'0 0.0
2014-Oct-14 11:33N 29°46' W 095°06'0 0.0
2014-Oct-14 10:33N 29°46' W 095°06'2 2.5
2014-Oct-14 09:33N 29°44' W 095°03'0 0.3
2014-Oct-14 08:33N 29°44' W 095°03'0 0.0
2014-Oct-14 07:33N 29°44' W 095°03'0 0.0
2014-Oct-14 06:32N 29°44' W 095°03'0 0.0
2014-Oct-14 05:33N 29°44' W 095°03'0 0.0
2014-Oct-14 03:26N 29°44' W 095°03'0 0.0
2014-Oct-14 02:33N 29°44' W 095°03'0 0.0
2014-Oct-14 01:32N 29°44' W 095°03'0 0.0
2014-Oct-14 00:33N 29°44' W 095°03'0 0.0
2014-Oct-13 23:33N 29°44' W 095°03'0 0.0
2014-Oct-13 22:33N 29°44' W 095°03'0 0.0
2014-Oct-13 21:33N 29°44' W 095°03'0 0.0
2014-Oct-13 19:24N 29°44' W 095°03'0 0.0
2014-Oct-13 18:33N 29°44' W 095°03'0 0.0
2014-Oct-13 17:33N 29°44' W 095°03'0 0.0
2014-Oct-13 16:33N 29°44' W 095°03'0 0.0
2014-Oct-13 15:33N 29°44' W 095°03'0 0.0
2014-Oct-13 14:33N 29°44' W 095°03'10 1.2
2014-Oct-13 06:26N 29°43' W 095°14'0 0.0
2014-Oct-13 05:33N 29°43' W 095°14'0 0.0
2014-Oct-13 04:33N 29°43' W 095°14'0 0.0
2014-Oct-13 03:32N 29°43' W 095°14'0 0.0
2014-Oct-13 02:13N 29°43' W 095°14'0 0.0
2014-Oct-13 01:14N 29°43' W 095°14'0 0.0
2014-Oct-13 00:14N 29°43' W 095°14'0 0.0
2014-Oct-12 23:30N 29°43' W 095°14'0 0.0
2014-Oct-12 22:08N 29°43' W 095°14'0 0.0
2014-Oct-12 21:24N 29°43' W 095°14'0 0.0
2014-Oct-12 19:22N 29°43' W 095°14'0 0.0
2014-Oct-12 18:32N 29°43' W 095°14'0 0.0
2014-Oct-12 17:25N 29°43' W 095°14'0 0.0
2014-Oct-12 16:32N 29°43' W 095°14'0 0.0
2014-Oct-12 15:33N 29°43' W 095°14'0 0.0
2014-Oct-12 14:32N 29°43' W 095°14'0 0.0
2014-Oct-12 13:27N 29°43' W 095°14'0 0.0
2014-Oct-12 12:26N 29°43' W 095°14'0 0.0
2014-Oct-12 11:27N 29°43' W 095°14'0 0.0
2014-Oct-12 10:32N 29°43' W 095°14'0 0.0
2014-Oct-12 09:26N 29°43' W 095°14'0 0.0
2014-Oct-12 08:31N 29°43' W 095°14'0 0.0
2014-Oct-12 07:31N 29°43' W 095°14'0 0.0
2014-Oct-12 06:32N 29°43' W 095°14'0 0.0
2014-Oct-12 05:33N 29°43' W 095°14'0 0.0
2014-Oct-12 04:32N 29°43' W 095°14'0 0.0
2014-Oct-12 03:31N 29°43' W 095°14'1 1.5
2014-Oct-12 02:33N 29°44' W 095°13'4 4.0
2014-Oct-12 01:33N 29°44' W 095°08'2 1.4
2014-Oct-12 00:18N 29°45' W 095°06'0 0.0
2014-Oct-11 16:33N 29°45' W 095°06'0 0.0
2014-Oct-11 15:33N 29°45' W 095°06'0 0.0
2014-Oct-11 14:33N 29°45' W 095°06'0 0.0
2014-Oct-11 13:33N 29°45' W 095°06'  

Dump ship's entire track history